createdAt,value
2018-05-08T00:02:20.713Z,99136.56
2018-05-08T00:04:48.413Z,99133.95
2018-05-08T00:07:16.074Z,99139.78
2018-05-08T00:09:43.785Z,99139.29
2018-05-08T00:12:11.454Z,99134.41
2018-05-08T00:14:39.127Z,99134.59
2018-05-08T00:17:06.805Z,99127.70
2018-05-08T00:19:34.513Z,99122.66
2018-05-08T00:22:02.250Z,99122.33
2018-05-08T00:24:29.906Z,99116.58
2018-05-08T00:26:57.622Z,99111.60
2018-05-08T00:29:25.334Z,99111.97
2018-05-08T00:31:52.977Z,99113.09
2018-05-08T00:34:20.600Z,99113.36
2018-05-08T00:36:48.273Z,99103.11
2018-05-08T00:39:15.907Z,99099.23
2018-05-08T00:41:43.519Z,99101.72
2018-05-08T00:44:11.156Z,99096.31
2018-05-08T00:46:38.799Z,99102.47
2018-05-08T00:49:06.418Z,99103.35
2018-05-08T00:51:34.032Z,99103.13
2018-05-08T00:54:01.689Z,99100.31
2018-05-08T00:56:29.355Z,99098.89
2018-05-08T00:58:57.052Z,99090.59
2018-05-08T01:01:24.690Z,99092.48
2018-05-08T01:03:52.378Z,99086.00
2018-05-08T01:06:20.067Z,99081.27
2018-05-08T01:08:47.726Z,99068.95
2018-05-08T01:11:15.442Z,99080.31
2018-05-08T01:13:43.118Z,99066.71
2018-05-08T01:16:10.809Z,99070.18
2018-05-08T01:18:38.526Z,99073.31
2018-05-08T01:21:06.205Z,99066.42
2018-05-08T01:23:33.965Z,99055.85
2018-05-08T01:26:01.662Z,99045.61
2018-05-08T01:28:29.405Z,99046.84
2018-05-08T01:30:57.049Z,99045.81
2018-05-08T01:33:24.721Z,99040.83
2018-05-08T01:35:53.954Z,99036.08
2018-05-08T01:38:21.578Z,99040.02
2018-05-08T01:40:49.267Z,99037.56
2018-05-08T01:43:17.067Z,99034.00
2018-05-08T01:45:44.628Z,99043.45
2018-05-08T01:48:12.233Z,99037.61
2018-05-08T01:50:39.908Z,99038.97
2018-05-08T01:53:07.522Z,99046.17
2018-05-08T01:55:35.216Z,99044.16
2018-05-08T01:58:02.967Z,99047.86
2018-05-08T02:00:30.634Z,99054.42
2018-05-08T02:02:58.305Z,99052.22
2018-05-08T02:05:26.017Z,99046.45
2018-05-08T02:07:53.695Z,99044.75
2018-05-08T02:10:21.337Z,99046.78
2018-05-08T02:12:48.942Z,99034.73
2018-05-08T02:15:16.604Z,99033.05
2018-05-08T02:17:44.299Z,99030.23
2018-05-08T02:20:11.930Z,99023.49
2018-05-08T02:22:39.583Z,99026.09
2018-05-08T02:25:07.205Z,99016.05
2018-05-08T02:27:34.839Z,99017.80
2018-05-08T02:30:02.468Z,99017.52
2018-05-08T02:32:30.098Z,99010.36
2018-05-08T02:34:57.875Z,99005.91
2018-05-08T02:37:25.515Z,98998.83
2018-05-08T02:39:53.150Z,98997.68
2018-05-08T02:42:20.766Z,99000.88
2018-05-08T02:44:48.480Z,99001.56
2018-05-08T02:47:16.139Z,98998.49
2018-05-08T02:49:43.791Z,98992.75
2018-05-08T02:52:11.490Z,98995.06
2018-05-08T02:54:39.150Z,98995.87
2018-05-08T02:57:07.066Z,99002.00
2018-05-08T02:59:34.718Z,99002.30
2018-05-08T03:02:02.342Z,99005.41
2018-05-08T03:04:29.973Z,99012.73
2018-05-08T03:06:57.602Z,99001.56
2018-05-08T03:09:25.218Z,98999.65
2018-05-08T03:11:52.878Z,99003.41
2018-05-08T03:14:20.573Z,99005.41
2018-05-08T03:16:48.221Z,99003.97
2018-05-08T03:19:15.873Z,99009.74
2018-05-08T03:21:43.603Z,99014.44
2018-05-08T03:24:11.281Z,99018.24
2018-05-08T03:26:39.047Z,99022.17
2018-05-08T03:29:06.765Z,99021.23
2018-05-08T03:31:34.394Z,99017.95
2018-05-08T03:34:02.030Z,99033.00
2018-05-08T03:36:29.661Z,99024.10
2018-05-08T03:38:57.318Z,99027.91
2018-05-08T03:41:24.941Z,99032.98
2018-05-08T03:43:52.580Z,99036.45
2018-05-08T03:46:20.230Z,99041.49
2018-05-08T03:48:47.902Z,99035.11
2018-05-08T03:51:15.561Z,99038.75
2018-05-08T03:53:43.165Z,99036.46
2018-05-08T03:56:10.794Z,99039.09
2018-05-08T03:58:38.478Z,99036.20
2018-05-08T04:01:17.922Z,99043.97
2018-05-08T04:03:57.282Z,99044.77
2018-05-08T04:09:40.969Z,99044.42
2018-05-08T04:12:08.653Z,99042.61
2018-05-08T04:14:36.319Z,99048.66
2018-05-08T04:17:04.001Z,99045.21
2018-05-08T04:19:31.745Z,99050.85
2018-05-08T04:21:59.413Z,99048.75
2018-05-08T04:24:27.118Z,99047.36
2018-05-08T04:26:54.749Z,99052.10
2018-05-08T04:29:22.385Z,99049.88
2018-05-08T04:31:50.074Z,99048.27
2018-05-08T04:34:17.717Z,99053.25
2018-05-08T04:36:45.346Z,99054.59
2018-05-08T04:39:12.997Z,99053.83
2018-05-08T04:41:40.615Z,99056.52
2018-05-08T04:44:08.350Z,99062.45
2018-05-08T04:46:36.018Z,99058.98
2018-05-08T04:49:03.743Z,99069.14
2018-05-08T04:51:31.449Z,99067.23
2018-05-08T04:53:59.125Z,99073.55
2018-05-08T04:56:26.795Z,99073.64
2018-05-08T04:58:54.521Z,99067.36
2018-05-08T05:01:22.213Z,99064.27
2018-05-08T05:03:49.881Z,99061.17
2018-05-08T05:06:17.581Z,99054.39
2018-05-08T05:08:45.245Z,99049.98
2018-05-08T05:11:12.882Z,99051.08
2018-05-08T05:13:40.691Z,99042.05
2018-05-08T05:16:08.354Z,99038.12
2018-05-08T05:18:36.059Z,99036.39
2018-05-08T05:21:03.734Z,99038.92
2018-05-08T05:23:31.449Z,99037.02
2018-05-08T05:25:59.182Z,99035.84
2018-05-08T05:28:26.895Z,99032.94
2018-05-08T05:30:54.564Z,99025.75
2018-05-08T05:33:22.266Z,99023.98
2018-05-08T05:35:49.973Z,99023.90
2018-05-08T05:38:17.646Z,99022.55
2018-05-08T05:40:45.283Z,99023.47
2018-05-08T05:43:12.983Z,99020.86
2018-05-08T05:45:40.645Z,99026.68
2018-05-08T05:48:08.370Z,99030.70
2018-05-08T05:50:36.046Z,99025.34
2018-05-08T05:53:03.858Z,99036.67
2018-05-08T05:55:31.534Z,99030.19
2018-05-08T05:57:59.306Z,99031.50
2018-05-08T06:00:27.001Z,99026.21
2018-05-08T06:02:54.680Z,99019.75
2018-05-08T06:05:22.406Z,99012.27
2018-05-08T06:07:50.042Z,99020.08
2018-05-08T06:10:17.660Z,99007.76
2018-05-08T06:12:45.321Z,99013.67
2018-05-08T06:15:12.999Z,99008.53
2018-05-08T06:17:40.631Z,99005.07
2018-05-08T06:20:08.322Z,99002.06
2018-05-08T06:22:35.990Z,98995.14
2018-05-08T06:25:03.631Z,98992.73
2018-05-08T06:27:31.321Z,98992.37
2018-05-08T06:29:59.004Z,98992.61
2018-05-08T06:32:26.718Z,98991.95
2018-05-08T06:34:54.376Z,98992.09
2018-05-08T06:37:22.053Z,98989.20
2018-05-08T06:39:49.678Z,98996.25
2018-05-08T06:42:17.368Z,98994.50
2018-05-08T06:44:45.062Z,98991.02
2018-05-08T06:47:12.710Z,98998.19
2018-05-08T06:49:40.341Z,99001.14
2018-05-08T06:52:07.974Z,98997.85
2018-05-08T06:54:35.700Z,99001.25
2018-05-08T06:57:03.414Z,98999.38
2018-05-08T06:59:31.090Z,98990.65
2018-05-08T07:01:58.792Z,98997.68
2018-05-08T07:04:26.469Z,98990.00
2018-05-08T07:06:54.166Z,98986.83
2018-05-08T07:09:21.946Z,98987.95
2018-05-08T07:11:49.642Z,98980.58
2018-05-08T07:14:17.352Z,98971.16
2018-05-08T07:16:45.081Z,98975.28
2018-05-08T07:19:12.785Z,98975.03
2018-05-08T07:21:40.456Z,98973.62
2018-05-08T07:24:08.135Z,98976.31
2018-05-08T07:26:35.721Z,98972.35
2018-05-08T07:29:03.382Z,98969.61
2018-05-08T07:31:30.994Z,98963.73
2018-05-08T07:33:58.707Z,98973.72
2018-05-08T07:36:26.391Z,98969.04
2018-05-08T07:38:54.099Z,98971.44
2018-05-08T07:41:21.804Z,98969.26
2018-05-08T07:43:49.474Z,98968.05
2018-05-08T07:46:17.086Z,98966.00
2018-05-08T07:48:44.790Z,98968.76
2018-05-08T07:51:12.509Z,98964.78
2018-05-08T07:53:40.134Z,98963.59
2018-05-08T07:56:07.818Z,98962.97
2018-05-08T07:58:35.458Z,98959.61
2018-05-08T08:01:03.206Z,98968.70
2018-05-08T08:03:30.879Z,98967.80
2018-05-08T08:05:58.534Z,98958.24
2018-05-08T08:08:26.219Z,98957.37
2018-05-08T08:10:53.914Z,98956.23
2018-05-08T08:13:21.622Z,98951.44
2018-05-08T08:15:49.306Z,98956.50
2018-05-08T08:18:16.982Z,98947.69
2018-05-08T08:20:44.614Z,98939.05
2018-05-08T08:23:12.310Z,98935.03
2018-05-08T08:25:40.031Z,98942.09
2018-05-08T08:28:07.713Z,98940.80
2018-05-08T08:30:35.374Z,98932.42
2018-05-08T08:33:03.070Z,98933.98
2018-05-08T08:35:30.710Z,98922.91
2018-05-08T08:37:58.434Z,98927.88
2018-05-08T08:40:26.119Z,98926.49
2018-05-08T08:42:53.725Z,98921.36
2018-05-08T08:45:21.366Z,98922.08
2018-05-08T08:47:49.014Z,98920.22
2018-05-08T08:50:16.770Z,98918.97
2018-05-08T08:52:44.452Z,98918.58
2018-05-08T08:55:12.147Z,98913.11
2018-05-08T08:57:39.829Z,98921.02
2018-05-08T09:00:07.446Z,98916.63
2018-05-08T09:02:35.138Z,98912.86
2018-05-08T09:05:02.877Z,98912.61
2018-05-08T09:07:30.550Z,98907.30
2018-05-08T09:09:58.181Z,98907.13
2018-05-08T09:12:25.820Z,98897.71
2018-05-08T09:14:53.537Z,98895.39
2018-05-08T09:17:21.190Z,98900.61
2018-05-08T09:19:48.941Z,98896.53
2018-05-08T09:22:16.526Z,98895.00
2018-05-08T09:24:44.745Z,98883.63
2018-05-08T09:29:39.491Z,98882.56
2018-05-08T09:32:07.162Z,98879.17
2018-05-08T09:34:34.822Z,98873.38
2018-05-08T09:37:02.429Z,98877.95
2018-05-08T09:39:30.054Z,98867.55
2018-05-08T09:41:57.694Z,98868.80
2018-05-08T09:44:25.319Z,98871.22
2018-05-08T09:46:52.926Z,98861.92
2018-05-08T09:49:20.617Z,98863.20
2018-05-08T09:51:48.243Z,98856.19
2018-05-08T09:54:15.888Z,98854.18
2018-05-08T09:56:43.682Z,98851.27
2018-05-08T09:59:11.334Z,98842.34
2018-05-08T10:01:39.011Z,98847.28
2018-05-08T10:04:06.700Z,98848.55
2018-05-08T10:06:34.331Z,98839.29
2018-05-08T10:09:01.955Z,98843.25
2018-05-08T10:11:29.600Z,98835.91
2018-05-08T10:13:57.223Z,98832.38
2018-05-08T10:16:24.911Z,98834.48
2018-05-08T10:18:52.698Z,98824.45
2018-05-08T10:21:20.414Z,98822.50
2018-05-08T10:23:48.029Z,98816.35
2018-05-08T10:26:15.745Z,98815.77
2018-05-08T10:28:43.454Z,98807.69
2018-05-08T10:31:11.158Z,98812.34
2018-05-08T10:33:38.786Z,98807.59
2018-05-08T10:36:10.122Z,98810.08
2018-05-08T10:38:37.794Z,98805.53
2018-05-08T10:41:05.481Z,98800.41
2018-05-08T10:43:33.213Z,98801.70
2018-05-08T10:46:00.846Z,98798.49
2018-05-08T10:48:28.568Z,98795.54
2018-05-08T10:50:56.260Z,98794.91
2018-05-08T10:53:23.978Z,98791.59
2018-05-08T10:55:51.671Z,98786.54
2018-05-08T10:58:19.293Z,98779.50
2018-05-08T11:00:46.986Z,98784.23
2018-05-08T11:03:14.689Z,98774.22
2018-05-08T11:05:42.270Z,98773.22
2018-05-08T11:08:09.870Z,98771.49
2018-05-08T11:10:37.473Z,98772.55
2018-05-08T11:13:05.098Z,98762.88
2018-05-08T11:15:32.702Z,98758.05
2018-05-08T11:18:00.333Z,98754.18
2018-05-08T11:20:27.921Z,98749.09
2018-05-08T11:22:55.517Z,98748.05
2018-05-08T11:25:23.106Z,98741.72
2018-05-08T11:27:50.685Z,98741.71
2018-05-08T11:30:18.265Z,98737.73
2018-05-08T11:32:45.890Z,98736.88
2018-05-08T11:35:13.584Z,98723.22
2018-05-08T11:37:41.237Z,98719.94
2018-05-08T11:40:08.878Z,98714.38
2018-05-08T11:42:36.465Z,98716.94
2018-05-08T11:45:04.090Z,98706.37
2018-05-08T11:47:31.685Z,98706.28
2018-05-08T11:50:00.200Z,98706.06
2018-05-08T11:52:27.811Z,98704.92
2018-05-08T11:54:55.398Z,98706.78
2018-05-08T11:57:23.051Z,98702.59
2018-05-08T11:59:50.758Z,98704.23
2018-05-08T12:02:18.543Z,98703.88
2018-05-08T12:04:46.161Z,98699.45
2018-05-08T12:07:13.778Z,98702.69
2018-05-08T12:09:41.405Z,98691.09
2018-05-08T12:12:09.110Z,98686.28
2018-05-08T12:14:36.719Z,98682.50
2018-05-08T12:17:04.397Z,98681.27
2018-05-08T12:19:31.981Z,98687.08
2018-05-08T12:21:59.642Z,98697.86
2018-05-08T12:24:27.341Z,98688.89
2018-05-08T12:26:54.955Z,98697.71
2018-05-08T12:29:22.573Z,98693.67
2018-05-08T12:31:50.261Z,98683.44
2018-05-08T12:34:18.263Z,98688.70
2018-05-08T12:36:47.695Z,98687.75
2018-05-08T12:39:15.326Z,98684.91
2018-05-08T12:41:42.938Z,98686.52
2018-05-08T12:44:10.534Z,98674.75
2018-05-08T12:46:38.146Z,98670.84
2018-05-08T12:49:05.753Z,98671.45
2018-05-08T12:51:33.463Z,98665.93
2018-05-08T12:54:01.134Z,98669.40
2018-05-08T12:56:28.766Z,98669.09
2018-05-08T12:58:56.374Z,98657.63
2018-05-08T13:01:23.994Z,98666.22
2018-05-08T13:03:51.581Z,98667.78
2018-05-08T13:06:19.159Z,98660.11
2018-05-08T13:08:46.837Z,98661.55
2018-05-08T13:11:14.437Z,98653.32
2018-05-08T13:13:42.042Z,98644.45
2018-05-08T13:16:09.665Z,98646.34
2018-05-08T13:18:37.246Z,98638.33
2018-05-08T13:21:04.845Z,98641.48
2018-05-08T13:23:32.489Z,98635.72
2018-05-08T13:26:00.074Z,98635.09
2018-05-08T13:28:27.665Z,98633.89
2018-05-08T13:30:55.241Z,98624.28
2018-05-08T13:33:22.861Z,98627.61
2018-05-08T13:35:50.502Z,98619.98
2018-05-08T13:38:18.102Z,98627.45
2018-05-08T13:40:45.681Z,98627.55
2018-05-08T13:43:13.345Z,98627.88
2018-05-08T13:45:41.011Z,98626.50
2018-05-08T13:48:08.642Z,98626.57
2018-05-08T13:50:36.221Z,98624.62
2018-05-08T13:53:03.804Z,98615.20
2018-05-08T13:55:31.474Z,98624.23
2018-05-08T13:57:59.210Z,98618.20
2018-05-08T14:00:26.934Z,98618.46
2018-05-08T14:02:54.608Z,98610.80
2018-05-08T14:05:22.243Z,98617.61
2018-05-08T14:07:49.967Z,98617.98
2018-05-08T14:10:17.674Z,98618.42
2018-05-08T14:12:45.366Z,98612.13
2018-05-08T14:15:13.025Z,98615.16
2018-05-08T14:17:40.652Z,98626.08
2018-05-08T14:20:08.379Z,98631.97
2018-05-08T14:22:36.106Z,98620.68
2018-05-08T14:25:03.826Z,98630.59
2018-05-08T14:27:31.462Z,98632.13
2018-05-08T14:29:59.110Z,98634.55
2018-05-08T14:32:26.784Z,98631.42
2018-05-08T14:34:54.429Z,98633.77
2018-05-08T14:37:22.022Z,98636.07
2018-05-08T14:39:49.667Z,98631.63
2018-05-08T14:42:17.278Z,98625.74
2018-05-08T14:44:44.949Z,98623.70
2018-05-08T14:47:12.634Z,98617.07
2018-05-08T14:49:40.413Z,98615.39
2018-05-08T14:52:08.021Z,98615.08
2018-05-08T14:54:35.751Z,98616.44
2018-05-08T14:57:03.426Z,98608.99
2018-05-08T14:59:31.046Z,98609.03
2018-05-08T15:01:58.746Z,98604.63
2018-05-08T15:04:26.429Z,98609.33
2018-05-08T15:06:54.129Z,98609.89
2018-05-08T15:09:21.785Z,98612.92
2018-05-08T15:11:49.654Z,98613.36
2018-05-08T15:14:17.217Z,98617.70
2018-05-08T15:16:44.956Z,98619.61
2018-05-08T15:19:12.657Z,98619.33
2018-05-08T15:21:40.349Z,98622.58
2018-05-08T15:24:08.018Z,98618.38
2018-05-08T15:26:35.681Z,98625.80
2018-05-08T15:29:03.375Z,98625.36
2018-05-08T15:31:31.034Z,98626.26
2018-05-08T15:33:58.671Z,98620.33
2018-05-08T15:36:26.389Z,98626.45
2018-05-08T15:38:54.034Z,98619.53
2018-05-08T15:41:21.811Z,98621.58
2018-05-08T15:43:49.417Z,98620.02
2018-05-08T15:46:17.068Z,98626.38
2018-05-08T15:48:44.718Z,98616.84
2018-05-08T15:51:12.337Z,98627.45
2018-05-08T15:53:39.929Z,98617.31
2018-05-08T15:56:07.622Z,98613.76
2018-05-08T15:58:35.229Z,98620.09
2018-05-08T16:01:02.905Z,98626.19
2018-05-08T16:03:30.521Z,98625.56
2018-05-08T16:05:58.239Z,98630.79
2018-05-08T16:08:25.906Z,98634.06
2018-05-08T16:10:53.541Z,98636.10
2018-05-08T16:13:21.198Z,98644.39
2018-05-08T16:15:48.818Z,98653.70
2018-05-08T16:18:16.460Z,98659.11
2018-05-08T16:20:44.123Z,98662.38
2018-05-08T16:23:11.750Z,98664.42
2018-05-08T16:25:39.432Z,98667.11
2018-05-08T16:28:07.170Z,98668.98
2018-05-08T16:30:34.910Z,98660.94
2018-05-08T16:33:02.487Z,98670.30
2018-05-08T16:35:30.215Z,98669.82
2018-05-08T16:37:57.797Z,98677.75
2018-05-08T16:40:25.389Z,98676.64
2018-05-08T16:42:53.017Z,98694.49
2018-05-08T16:45:20.612Z,98688.19
2018-05-08T16:47:48.201Z,98688.95
2018-05-08T16:50:15.841Z,98686.75
2018-05-08T16:52:43.582Z,98690.41
2018-05-08T16:55:11.296Z,98698.52
2018-05-08T16:57:38.893Z,98705.26
2018-05-08T17:00:06.525Z,98704.79
2018-05-08T17:02:34.111Z,98703.64
2018-05-08T17:05:01.766Z,98703.22
2018-05-08T17:07:29.381Z,98696.38
2018-05-08T17:09:56.983Z,98698.08
2018-05-08T17:12:24.577Z,98702.16
2018-05-08T17:14:52.921Z,98697.94
2018-05-08T17:17:20.544Z,98705.87
2018-05-08T17:19:48.173Z,98702.36
2018-05-08T17:22:15.767Z,98708.08
2018-05-08T17:24:43.375Z,98704.62
2018-05-08T17:27:11.013Z,98701.59
2018-05-08T17:29:38.626Z,98710.18
2018-05-08T17:32:06.382Z,98709.38
2018-05-08T17:34:34.025Z,98710.66
2018-05-08T17:37:01.685Z,98716.61
2018-05-08T17:39:29.465Z,98721.44
2018-05-08T17:41:57.206Z,98724.75
2018-05-08T17:44:24.876Z,98730.31
2018-05-08T17:46:52.610Z,98725.44
2018-05-08T17:49:20.242Z,98732.55
2018-05-08T17:51:47.970Z,98740.94
2018-05-08T17:54:15.703Z,98741.20
2018-05-08T17:56:43.385Z,98742.41
2018-05-08T17:59:11.176Z,98746.20
2018-05-08T18:01:38.853Z,98743.48
2018-05-08T18:04:06.588Z,98743.45
2018-05-08T18:06:34.278Z,98744.45
2018-05-08T18:09:01.910Z,98756.14
2018-05-08T18:11:29.587Z,98756.92
2018-05-08T18:13:57.145Z,98759.80
2018-05-08T18:16:24.819Z,98762.24
2018-05-08T18:18:52.422Z,98763.38
2018-05-08T18:21:20.096Z,98766.22
2018-05-08T18:23:47.807Z,98764.38
2018-05-08T18:26:16.037Z,98759.01
2018-05-08T18:28:43.682Z,98762.63
2018-05-08T18:31:11.365Z,98760.27
2018-05-08T18:33:39.078Z,98764.59
2018-05-08T18:36:06.699Z,98766.11
2018-05-08T18:38:34.379Z,98761.53
2018-05-08T18:41:02.145Z,98759.75
2018-05-08T18:43:29.868Z,98760.36
2018-05-08T18:45:57.547Z,98759.22
2018-05-08T18:48:25.294Z,98761.41
2018-05-08T18:50:52.970Z,98761.45
2018-05-08T18:53:20.621Z,98760.89
2018-05-08T18:55:48.275Z,98761.88
2018-05-08T18:58:15.894Z,98763.21
2018-05-08T19:00:49.077Z,98758.92
2018-05-08T19:03:16.669Z,98760.89
2018-05-08T19:05:44.257Z,98761.38
2018-05-08T19:08:11.873Z,98764.66
2018-05-08T19:10:39.473Z,98772.02
2018-05-08T19:13:07.176Z,98771.56
2018-05-08T19:15:40.408Z,98783.09
2018-05-08T19:18:08.110Z,98781.31
2018-05-08T19:20:35.814Z,98781.31
2018-05-08T19:23:03.522Z,98777.39
2018-05-08T19:25:31.219Z,98787.41
2018-05-08T19:28:04.389Z,98782.80
2018-05-08T19:30:32.114Z,98786.86
2018-05-08T19:32:59.766Z,98781.15
2018-05-08T19:35:32.922Z,98784.13
2018-05-08T19:38:04.483Z,98789.72
2018-05-08T19:40:32.142Z,98786.00
2018-05-08T19:42:59.806Z,98786.41
2018-05-08T19:45:27.489Z,98791.02
2018-05-08T19:47:55.253Z,98785.67
2018-05-08T19:50:22.861Z,98786.70
2018-05-08T19:52:50.490Z,98790.84
2018-05-08T19:55:18.154Z,98796.12
2018-05-08T19:57:45.791Z,98792.78
2018-05-08T20:00:13.426Z,98796.23
2018-05-08T20:02:41.117Z,98791.14
2018-05-08T20:05:08.746Z,98788.29
2018-05-08T20:07:36.403Z,98792.56
2018-05-08T20:10:04.114Z,98790.91
2018-05-08T20:12:31.819Z,98788.72
2018-05-08T20:14:59.443Z,98794.15
2018-05-08T20:17:27.101Z,98788.20
2018-05-08T20:19:54.824Z,98790.14
2018-05-08T20:22:22.526Z,98787.11
2018-05-08T20:24:50.185Z,98791.34
2018-05-08T20:27:17.853Z,98790.80
2018-05-08T20:29:45.590Z,98790.92
2018-05-08T20:32:13.258Z,98795.25
2018-05-08T20:34:40.934Z,98793.48
2018-05-08T20:37:08.662Z,98786.20
2018-05-08T20:39:36.322Z,98799.41
2018-05-08T20:42:04.019Z,98797.85
2018-05-08T20:44:31.714Z,98799.25
2018-05-08T20:46:59.382Z,98800.03
2018-05-08T20:49:27.087Z,98797.13
2018-05-08T20:51:54.798Z,98788.80
2018-05-08T20:54:22.433Z,98787.36
2018-05-08T20:56:50.130Z,98788.98
2018-05-08T20:59:17.830Z,98789.88
2018-05-08T21:01:46.003Z,98790.62
2018-05-08T21:04:13.625Z,98784.33
2018-05-08T21:06:41.250Z,98787.52
2018-05-08T21:09:08.985Z,98782.86
2018-05-08T21:11:36.610Z,98789.45
2018-05-08T21:14:04.277Z,98788.20
2018-05-08T21:16:31.942Z,98787.21
2018-05-08T21:18:59.594Z,98794.63
2018-05-08T21:21:27.211Z,98793.62
2018-05-08T21:23:54.925Z,98791.55
2018-05-08T21:26:22.648Z,98788.87
2018-05-08T21:28:55.894Z,98782.89
2018-05-08T21:31:23.598Z,98781.77
2018-05-08T21:33:52.276Z,98775.98
2018-05-08T21:36:19.998Z,98781.92
2018-05-08T21:38:47.642Z,98773.56
2018-05-08T21:41:15.281Z,98774.52
2018-05-08T21:43:42.973Z,98779.78
2018-05-08T21:46:10.635Z,98780.00
2018-05-08T21:48:38.333Z,98778.02
2018-05-08T21:51:06.024Z,98780.32
2018-05-08T21:53:33.718Z,98782.13
2018-05-08T21:56:01.422Z,98785.16
2018-05-08T21:58:29.147Z,98779.35
2018-05-08T22:00:56.765Z,98782.70
2018-05-08T22:03:24.427Z,98775.72
2018-05-08T22:05:52.090Z,98772.75
2018-05-08T22:08:19.746Z,98769.72
2018-05-08T22:10:47.394Z,98778.48
2018-05-08T22:13:15.023Z,98774.93
2018-05-08T22:15:42.788Z,98780.29
2018-05-08T22:18:10.441Z,98784.05
2018-05-08T22:20:38.162Z,98781.64
2018-05-08T22:23:05.863Z,98783.27
2018-05-08T22:25:33.491Z,98780.89
2018-05-08T22:28:01.146Z,98781.99
2018-05-08T22:30:28.849Z,98775.36
2018-05-08T22:32:56.453Z,98776.30
2018-05-08T22:35:24.045Z,98773.52
2018-05-08T22:37:51.708Z,98773.34
2018-05-08T22:40:19.370Z,98772.89
2018-05-08T22:42:47.097Z,98767.68
2018-05-08T22:45:14.793Z,98765.98
2018-05-08T22:47:42.466Z,98768.38
2018-05-08T22:50:10.261Z,98768.80
2018-05-08T22:52:37.906Z,98767.66
2018-05-08T22:55:05.545Z,98759.27
2018-05-08T22:57:33.181Z,98755.97
2018-05-08T23:00:00.822Z,98755.17
2018-05-08T23:02:28.490Z,98756.41
2018-05-08T23:04:56.129Z,98755.47
2018-05-08T23:07:23.758Z,98752.03
2018-05-08T23:09:51.445Z,98748.88
2018-05-08T23:12:19.157Z,98745.44
2018-05-08T23:14:46.866Z,98741.13
2018-05-08T23:17:14.551Z,98732.89
2018-05-08T23:19:42.231Z,98736.41
2018-05-08T23:22:09.881Z,98734.45
2018-05-08T23:24:37.549Z,98730.91
2018-05-08T23:27:05.262Z,98738.71
2018-05-08T23:29:32.981Z,98735.56
2018-05-08T23:32:00.689Z,98742.86
2018-05-08T23:34:28.482Z,98746.91
2018-05-08T23:36:56.154Z,98747.62
2018-05-08T23:39:23.817Z,98739.84
2018-05-08T23:41:51.434Z,98745.99
2018-05-08T23:44:19.094Z,98745.46
2018-05-08T23:46:46.756Z,98746.95
2018-05-08T23:49:14.414Z,98739.48
2018-05-08T23:51:42.093Z,98736.27
2018-05-08T23:54:09.705Z,98733.05
2018-05-08T23:56:37.393Z,98724.11
2018-05-08T23:59:05.030Z,98723.20
